createdAt,value
2024-02-05T00:02:52.415Z,0.57
2024-02-05T00:05:45.857Z,0.50
2024-02-05T00:08:39.470Z,0.40
2024-02-05T00:11:34.307Z,0.45
2024-02-05T00:14:28.314Z,0.60
2024-02-05T00:17:21.814Z,0.40
2024-02-05T00:20:14.653Z,0.63
2024-02-05T00:23:07.686Z,0.50
2024-02-05T00:26:01.502Z,0.28
2024-02-05T00:28:55.666Z,0.40
2024-02-05T00:31:49.621Z,0.30
2024-02-05T00:34:42.439Z,0.40
2024-02-05T00:37:35.461Z,0.50
2024-02-05T00:40:28.749Z,0.30
2024-02-05T00:43:21.603Z,0.50
2024-02-05T00:46:24.016Z,0.40
2024-02-05T00:49:17.850Z,0.40
2024-02-05T00:52:11.924Z,0.50
2024-02-05T00:55:06.381Z,0.52
2024-02-05T00:57:59.470Z,0.30
2024-02-05T01:00:52.676Z,0.45
2024-02-05T01:03:49.916Z,0.30
2024-02-05T01:06:44.112Z,0.28
2024-02-05T01:09:37.745Z,0.30
2024-02-05T01:12:30.622Z,0.52
2024-02-05T01:15:23.769Z,0.38
2024-02-05T01:18:17.086Z,0.43
2024-02-05T01:21:12.176Z,0.30
2024-02-05T01:24:08.578Z,0.63
2024-02-05T01:27:01.643Z,0.60
2024-02-05T01:29:56.455Z,0.30
2024-02-05T01:32:50.421Z,0.38
2024-02-05T01:35:44.084Z,0.40
2024-02-05T01:38:39.253Z,0.50
2024-02-05T01:41:33.006Z,0.30
2024-02-05T01:44:25.561Z,0.43
2024-02-05T01:47:19.416Z,0.47
2024-02-05T01:50:14.893Z,0.43
2024-02-05T01:53:08.330Z,0.32
2024-02-05T01:56:03.349Z,0.30
2024-02-05T01:58:56.943Z,0.30
2024-02-05T02:01:49.968Z,0.40
2024-02-05T02:04:44.463Z,0.47
2024-02-05T02:07:37.853Z,0.40
2024-02-05T02:10:30.506Z,0.40
2024-02-05T02:13:25.335Z,0.30
2024-02-05T02:16:23.823Z,0.30
2024-02-05T02:19:38.171Z,0.30
2024-02-05T02:22:39.066Z,0.40
2024-02-05T02:25:40.184Z,0.35
2024-02-05T02:28:33.837Z,0.28
2024-02-05T02:31:30.981Z,0.30
2024-02-05T02:34:31.484Z,0.40
2024-02-05T02:37:29.340Z,0.40
2024-02-05T02:40:24.498Z,0.30
2024-02-05T02:43:23.309Z,0.40
2024-02-05T02:46:17.440Z,0.40
2024-02-05T02:49:11.075Z,0.40
2024-02-05T02:52:05.261Z,0.40
2024-02-05T02:54:58.643Z,0.30
2024-02-05T02:57:51.924Z,0.30
2024-02-05T03:00:46.009Z,0.30
2024-02-05T03:03:40.995Z,0.50
2024-02-05T03:06:35.351Z,0.40
2024-02-05T03:09:28.743Z,0.50
2024-02-05T03:12:22.361Z,0.25
2024-02-05T03:15:16.256Z,0.30
2024-02-05T03:18:12.041Z,0.40
2024-02-05T03:21:06.375Z,0.50
2024-02-05T03:23:59.649Z,0.32
2024-02-05T03:26:53.018Z,0.30
2024-02-05T03:29:45.573Z,0.20
2024-02-05T03:32:38.422Z,0.35
2024-02-05T03:35:33.729Z,0.30
2024-02-05T03:38:26.586Z,0.30
2024-02-05T03:41:20.073Z,0.40
2024-02-05T03:44:13.639Z,0.30
2024-02-05T03:47:07.070Z,0.30
2024-02-05T03:50:01.042Z,0.30
2024-02-05T03:52:56.645Z,0.38
2024-02-05T03:55:49.735Z,0.28
2024-02-05T03:58:42.884Z,0.20
2024-02-05T04:01:36.570Z,0.17
2024-02-05T04:04:31.570Z,0.32
2024-02-05T04:07:25.243Z,0.28
2024-02-05T04:10:20.166Z,0.30
2024-02-05T04:13:13.754Z,0.30
2024-02-05T04:16:14.491Z,0.30
2024-02-05T04:19:09.478Z,0.35
2024-02-05T04:22:03.048Z,0.28
2024-02-05T04:24:55.955Z,0.38
2024-02-05T04:27:50.555Z,0.20
2024-02-05T04:30:43.557Z,0.25
2024-02-05T04:33:36.682Z,0.30
2024-02-05T04:36:29.897Z,0.30
2024-02-05T04:39:23.028Z,0.40
2024-02-05T04:42:16.891Z,0.40
2024-02-05T04:45:12.180Z,0.40
2024-02-05T04:48:06.103Z,0.35
2024-02-05T04:51:00.334Z,0.20
2024-02-05T04:53:53.860Z,0.50
2024-02-05T04:56:46.941Z,0.35
2024-02-05T04:59:39.952Z,0.40
2024-02-05T05:02:34.359Z,0.30
2024-02-05T05:05:28.275Z,0.30
2024-02-05T05:08:21.892Z,0.47
2024-02-05T05:11:22.447Z,0.40
2024-02-05T05:14:16.736Z,0.30
2024-02-05T05:17:10.953Z,0.45
2024-02-05T05:20:06.561Z,0.40
2024-02-05T05:23:00.073Z,0.20
2024-02-05T05:25:52.668Z,0.40
2024-02-05T05:28:45.690Z,0.25
2024-02-05T05:31:38.522Z,0.20
2024-02-05T05:34:32.257Z,0.30
2024-02-05T05:37:27.633Z,0.30
2024-02-05T05:40:20.891Z,0.35
2024-02-05T05:43:14.066Z,0.40
2024-02-05T05:46:07.186Z,0.40
2024-02-05T05:49:01.038Z,0.30
2024-02-05T05:51:54.008Z,0.30
2024-02-05T05:54:48.344Z,0.30
2024-02-05T05:57:42.262Z,0.38
2024-02-05T06:00:35.775Z,0.38
2024-02-05T06:03:29.853Z,0.40
2024-02-05T06:06:22.819Z,0.40
2024-02-05T06:09:19.561Z,0.40
2024-02-05T06:12:13.964Z,0.30
2024-02-05T06:15:08.768Z,0.60
2024-02-05T06:18:02.073Z,0.40
2024-02-05T06:20:54.719Z,0.40
2024-02-05T06:23:48.799Z,0.43
2024-02-05T06:26:42.168Z,0.57
2024-02-05T06:29:37.225Z,0.40
2024-02-05T06:32:30.686Z,0.30
2024-02-05T06:35:26.310Z,0.38
2024-02-05T06:38:19.870Z,0.40
2024-02-05T06:41:12.742Z,0.40
2024-02-05T06:44:06.746Z,0.30
2024-02-05T06:47:03.869Z,0.50
2024-02-05T06:49:57.355Z,0.40
2024-02-05T06:52:51.153Z,0.52
2024-02-05T06:55:44.644Z,0.52
2024-02-05T06:58:37.668Z,0.50
2024-02-05T07:01:30.972Z,0.30
2024-02-05T07:04:25.527Z,0.43
2024-02-05T07:07:19.124Z,0.50
2024-02-05T07:10:12.474Z,0.43
2024-02-05T07:13:06.121Z,0.60
2024-02-05T07:16:00.168Z,0.55
2024-02-05T07:18:53.635Z,0.80
2024-02-05T07:21:48.401Z,0.90
2024-02-05T07:24:46.017Z,1.08
2024-02-05T07:27:40.180Z,1.00
2024-02-05T07:30:33.309Z,0.80
2024-02-05T07:33:26.919Z,0.55
2024-02-05T07:36:20.110Z,1.15
2024-02-05T07:39:14.373Z,0.52
2024-02-05T07:42:08.834Z,0.77
2024-02-05T07:45:02.825Z,0.75
2024-02-05T07:47:56.227Z,0.82
2024-02-05T07:50:49.030Z,0.80
2024-02-05T07:53:42.006Z,0.95
2024-02-05T07:56:37.247Z,0.90
2024-02-05T07:59:29.959Z,0.82
2024-02-05T08:02:24.042Z,0.52
2024-02-05T08:05:18.265Z,0.82
2024-02-05T08:08:11.744Z,0.85
2024-02-05T08:11:05.044Z,1.40
2024-02-05T08:13:59.576Z,1.00
2024-02-05T08:16:53.498Z,1.13
2024-02-05T08:19:48.826Z,1.02
2024-02-05T08:22:42.687Z,1.02
2024-02-05T08:25:38.934Z,1.10
2024-02-05T08:28:32.073Z,1.00
2024-02-05T08:31:26.509Z,0.73
2024-02-05T08:34:20.288Z,1.00
2024-02-05T08:37:13.070Z,1.02
2024-02-05T08:40:08.113Z,1.48
2024-02-05T08:43:02.233Z,0.90
2024-02-05T08:45:54.970Z,0.90
2024-02-05T08:48:49.717Z,1.42
2024-02-05T08:51:42.735Z,1.13
2024-02-05T08:54:36.801Z,4.15
2024-02-05T08:57:30.427Z,2.38
2024-02-05T09:00:24.414Z,3.55
2024-02-05T09:03:18.678Z,3.40
2024-02-05T09:06:16.717Z,2.90
2024-02-05T09:09:10.959Z,2.97
2024-02-05T09:12:06.801Z,3.40
2024-02-05T09:15:02.173Z,2.47
2024-02-05T09:17:55.112Z,2.97
2024-02-05T09:20:48.343Z,2.25
2024-02-05T09:23:43.373Z,3.03
2024-02-05T09:26:36.172Z,2.78
2024-02-05T09:29:29.253Z,2.90
2024-02-05T09:32:21.997Z,2.72
2024-02-05T09:35:15.322Z,3.22
2024-02-05T09:38:09.704Z,2.80
2024-02-05T09:41:06.849Z,3.15
2024-02-05T09:44:01.042Z,2.28
2024-02-05T09:46:57.016Z,3.50
2024-02-05T09:49:51.689Z,2.95
2024-02-05T09:52:47.003Z,3.03
2024-02-05T09:55:42.528Z,2.75
2024-02-05T09:58:37.277Z,2.35
2024-02-05T10:01:32.029Z,3.13
2024-02-05T10:04:27.023Z,2.90
2024-02-05T10:07:21.731Z,2.72
2024-02-05T10:10:16.195Z,3.28
2024-02-05T10:13:09.472Z,2.75
2024-02-05T10:16:06.327Z,2.83
2024-02-05T10:18:59.213Z,2.85
2024-02-05T10:21:52.531Z,3.00
2024-02-05T10:24:47.013Z,2.83
2024-02-05T10:27:40.150Z,3.10
2024-02-05T10:30:35.255Z,2.63
2024-02-05T10:33:32.263Z,2.58
2024-02-05T10:36:25.160Z,2.85
2024-02-05T10:39:24.476Z,2.00
2024-02-05T10:42:18.158Z,2.53
2024-02-05T10:45:12.330Z,2.58
2024-02-05T10:48:06.230Z,2.10
2024-02-05T10:51:00.249Z,2.08
2024-02-05T10:53:53.641Z,1.77
2024-02-05T10:56:48.330Z,2.35
2024-02-05T10:59:40.844Z,2.50
2024-02-05T11:02:37.422Z,2.28
2024-02-05T11:05:31.570Z,2.22
2024-02-05T11:08:28.372Z,2.13
2024-02-05T11:11:21.165Z,1.80
2024-02-05T11:14:18.774Z,1.75
2024-02-05T11:17:13.685Z,1.95
2024-02-05T11:20:12.017Z,2.05
2024-02-05T11:23:06.139Z,2.58
2024-02-05T11:26:00.625Z,1.92
2024-02-05T11:28:56.098Z,1.58
2024-02-05T11:31:49.117Z,2.30
2024-02-05T11:34:43.837Z,1.73
2024-02-05T11:37:38.082Z,1.83
2024-02-05T11:40:34.298Z,1.77
2024-02-05T11:43:31.079Z,1.73
2024-02-05T11:46:25.164Z,1.90
2024-02-05T11:49:19.544Z,1.88
2024-02-05T11:52:13.356Z,2.70
2024-02-05T11:55:08.782Z,2.00
2024-02-05T11:58:01.924Z,2.08
2024-02-05T12:00:57.192Z,1.90
2024-02-05T12:03:52.066Z,2.03
2024-02-05T12:06:45.595Z,1.70
2024-02-05T12:09:39.361Z,1.65
2024-02-05T12:12:32.577Z,2.10
2024-02-05T12:15:28.519Z,1.85
2024-02-05T12:18:23.785Z,1.83
2024-02-05T12:21:17.929Z,1.50
2024-02-05T12:24:11.574Z,1.80
2024-02-05T12:27:06.011Z,1.90
2024-02-05T12:30:07.167Z,1.73
2024-02-05T12:33:00.961Z,1.75
2024-02-05T12:36:01.607Z,1.90
2024-02-05T12:38:54.996Z,2.00
2024-02-05T12:41:48.613Z,2.28
2024-02-05T12:44:47.278Z,2.58
2024-02-05T12:47:49.455Z,1.92
2024-02-05T12:50:43.252Z,1.92
2024-02-05T12:53:40.104Z,1.90
2024-02-05T12:56:33.496Z,1.92
2024-02-05T12:59:26.290Z,1.98
2024-02-05T13:02:19.619Z,1.42
2024-02-05T13:05:13.317Z,2.85
2024-02-05T13:08:10.602Z,2.35
2024-02-05T13:11:07.282Z,2.85
2024-02-05T13:14:02.602Z,2.38
2024-02-05T13:17:01.752Z,2.33
2024-02-05T13:19:55.384Z,2.30
2024-02-05T13:22:48.141Z,2.53
2024-02-05T13:25:45.803Z,2.38
2024-02-05T13:28:42.499Z,1.98
2024-02-05T13:31:35.302Z,2.65
2024-02-05T13:34:30.665Z,2.40
2024-02-05T13:37:25.130Z,2.17
2024-02-05T13:40:18.326Z,1.90
2024-02-05T13:43:10.959Z,1.92
2024-02-05T13:46:06.694Z,2.38
2024-02-05T13:49:00.518Z,2.63
2024-02-05T13:51:53.437Z,2.22
2024-02-05T13:54:47.334Z,2.35
2024-02-05T13:57:40.723Z,2.25
2024-02-05T14:00:34.133Z,1.98
2024-02-05T14:03:29.597Z,2.30
2024-02-05T14:06:23.640Z,1.85
2024-02-05T14:09:17.448Z,1.60
2024-02-05T14:12:10.608Z,1.67
2024-02-05T14:15:04.470Z,2.00
2024-02-05T14:17:58.275Z,1.98
2024-02-05T14:20:52.509Z,2.25
2024-02-05T14:23:47.132Z,1.77
2024-02-05T14:26:40.438Z,1.95
2024-02-05T14:29:33.602Z,1.60
2024-02-05T14:32:26.282Z,1.85
2024-02-05T14:35:19.133Z,1.83
2024-02-05T14:38:13.888Z,1.75
2024-02-05T14:41:07.117Z,2.33
2024-02-05T14:44:01.198Z,2.33
2024-02-05T14:46:54.373Z,2.10
2024-02-05T14:49:48.267Z,2.28
2024-02-05T14:52:42.353Z,2.97
2024-02-05T14:55:36.601Z,2.35
2024-02-05T14:58:30.193Z,2.35
2024-02-05T15:01:23.489Z,2.58
2024-02-05T15:04:16.735Z,2.42
2024-02-05T15:07:10.631Z,2.15
2024-02-05T15:10:04.832Z,2.50
2024-02-05T15:12:59.892Z,2.50
2024-02-05T15:15:56.038Z,2.45
2024-02-05T15:18:53.162Z,1.95
2024-02-05T15:21:46.888Z,1.98
2024-02-05T15:24:41.046Z,2.97
2024-02-05T15:27:34.381Z,2.40
2024-02-05T15:30:28.382Z,2.20
2024-02-05T15:33:21.460Z,2.10
2024-02-05T15:36:14.769Z,2.38
2024-02-05T15:39:11.851Z,2.47
2024-02-05T15:42:05.779Z,2.53
2024-02-05T15:44:59.496Z,2.15
2024-02-05T15:47:54.592Z,2.35
2024-02-05T15:50:47.333Z,2.22
2024-02-05T15:53:40.533Z,2.75
2024-02-05T15:56:39.775Z,2.15
2024-02-05T15:59:36.356Z,2.35
2024-02-05T16:02:29.638Z,2.05
2024-02-05T16:05:24.637Z,2.38
2024-02-05T16:08:17.184Z,2.03
2024-02-05T16:11:10.420Z,2.08
2024-02-05T16:14:04.976Z,2.28
2024-02-05T16:16:58.812Z,1.98
2024-02-05T16:19:54.281Z,1.90
2024-02-05T16:22:49.561Z,2.00
2024-02-05T16:25:44.045Z,1.77
2024-02-05T16:28:37.356Z,2.13
2024-02-05T16:31:30.421Z,2.05
2024-02-05T16:34:23.329Z,1.65
2024-02-05T16:37:16.292Z,1.90
2024-02-05T16:40:11.793Z,1.98
2024-02-05T16:43:05.567Z,2.08
2024-02-05T16:45:59.206Z,2.33
2024-02-05T16:48:52.650Z,2.00
2024-02-05T16:51:45.328Z,1.90
2024-02-05T16:54:38.375Z,2.00
2024-02-05T16:57:32.542Z,2.22
2024-02-05T17:00:27.009Z,1.80
2024-02-05T17:03:20.665Z,1.80
2024-02-05T17:06:13.619Z,1.60
2024-02-05T17:09:07.359Z,1.65
2024-02-05T17:12:00.551Z,2.05
2024-02-05T17:14:54.769Z,2.10
2024-02-05T17:17:48.804Z,1.70
2024-02-05T17:20:42.286Z,1.90
2024-02-05T17:23:35.607Z,1.90
2024-02-05T17:26:28.295Z,1.90
2024-02-05T17:29:21.883Z,1.33
2024-02-05T17:32:16.685Z,1.60
2024-02-05T17:35:11.204Z,1.80
2024-02-05T17:38:05.499Z,1.58
2024-02-05T17:40:58.339Z,1.55
2024-02-05T17:43:51.251Z,1.60
2024-02-05T17:46:46.383Z,1.98
2024-02-05T17:49:40.629Z,2.00
2024-02-05T17:52:33.701Z,2.00
2024-02-05T17:55:26.668Z,1.77
2024-02-05T17:58:19.371Z,1.65
2024-02-05T18:01:13.453Z,1.70
2024-02-05T18:04:09.042Z,1.52
2024-02-05T18:07:06.010Z,1.73
2024-02-05T18:09:59.276Z,1.60
2024-02-05T18:12:53.712Z,1.52
2024-02-05T18:15:47.440Z,1.98
2024-02-05T18:18:40.854Z,1.80
2024-02-05T18:21:37.053Z,1.73
2024-02-05T18:24:38.133Z,1.75
2024-02-05T18:27:38.336Z,1.55
2024-02-05T18:30:32.909Z,1.70
2024-02-05T18:33:26.619Z,1.75
2024-02-05T18:36:19.432Z,2.00
2024-02-05T18:39:14.128Z,2.25
2024-02-05T18:42:10.947Z,2.38
2024-02-05T18:45:05.289Z,1.65
2024-02-05T18:47:58.653Z,2.10
2024-02-05T18:50:52.085Z,2.00
2024-02-05T18:53:45.797Z,2.28
2024-02-05T18:56:38.392Z,4.00
2024-02-05T18:59:33.025Z,3.50
2024-02-05T19:02:28.393Z,4.03
2024-02-05T19:05:21.626Z,3.30
2024-02-05T19:08:14.742Z,3.88
2024-02-05T19:11:08.395Z,3.45
2024-02-05T19:14:01.821Z,3.80
2024-02-05T19:16:56.090Z,3.70
2024-02-05T19:19:50.330Z,3.65
2024-02-05T19:22:44.172Z,4.45
2024-02-05T19:25:38.465Z,3.15
2024-02-05T19:28:31.816Z,3.17
2024-02-05T19:31:25.911Z,3.03
2024-02-05T19:34:22.022Z,3.53
2024-02-05T19:37:16.597Z,3.28
2024-02-05T19:40:10.137Z,3.63
2024-02-05T19:43:05.181Z,3.00
2024-02-05T19:45:58.737Z,2.80
2024-02-05T19:48:51.629Z,3.17
2024-02-05T19:51:45.709Z,3.15
2024-02-05T19:54:40.325Z,3.05
2024-02-05T19:57:33.748Z,2.80
2024-02-05T20:00:29.824Z,2.72
2024-02-05T20:03:22.675Z,3.28
2024-02-05T20:06:15.825Z,3.55
2024-02-05T20:09:12.179Z,3.10
2024-02-05T20:12:09.549Z,2.95
2024-02-05T20:15:05.316Z,3.20
2024-02-05T20:17:58.853Z,2.70
2024-02-05T20:20:52.705Z,3.22
2024-02-05T20:23:47.889Z,3.08
2024-02-05T20:26:42.875Z,3.50
2024-02-05T20:29:35.457Z,3.30
2024-02-05T20:32:29.492Z,3.00
2024-02-05T20:35:24.687Z,2.75
2024-02-05T20:38:17.505Z,2.75
2024-02-05T20:41:13.098Z,2.85
2024-02-05T20:44:12.534Z,2.60
2024-02-05T20:47:06.062Z,2.80
2024-02-05T20:50:00.020Z,2.70
2024-02-05T20:52:53.777Z,2.90
2024-02-05T20:55:46.664Z,3.13
2024-02-05T20:58:39.959Z,2.80
2024-02-05T21:01:35.273Z,3.00
2024-02-05T21:04:28.949Z,2.83
2024-02-05T21:07:23.959Z,2.92
2024-02-05T21:10:19.338Z,2.75
2024-02-05T21:13:12.384Z,2.80
2024-02-05T21:16:08.581Z,2.88
2024-02-05T21:19:04.764Z,2.85
2024-02-05T21:21:57.678Z,3.05
2024-02-05T21:24:52.942Z,2.63
2024-02-05T21:27:47.385Z,2.70
2024-02-05T21:30:41.147Z,2.33
2024-02-05T21:33:34.573Z,2.42
2024-02-05T21:36:29.212Z,3.15
2024-02-05T21:39:23.204Z,2.53
2024-02-05T21:42:16.755Z,2.75
2024-02-05T21:45:10.166Z,2.80
2024-02-05T21:48:10.045Z,2.17
2024-02-05T21:51:03.688Z,2.70
2024-02-05T21:53:58.344Z,2.80
2024-02-05T21:56:51.949Z,3.03
2024-02-05T21:59:44.742Z,2.42
2024-02-05T22:02:37.994Z,2.20
2024-02-05T22:05:32.565Z,2.85
2024-02-05T22:08:26.022Z,2.40
2024-02-05T22:11:20.737Z,2.60
2024-02-05T22:14:13.840Z,2.60
2024-02-05T22:17:08.405Z,2.58
2024-02-05T22:20:02.110Z,2.45
2024-02-05T22:22:56.624Z,2.45
2024-02-05T22:25:50.591Z,2.42
2024-02-05T22:28:45.058Z,2.83
2024-02-05T22:31:38.580Z,1.90
2024-02-05T22:34:32.891Z,2.28
2024-02-05T22:37:28.204Z,2.10
2024-02-05T22:40:21.767Z,2.30
2024-02-05T22:43:17.465Z,2.30
2024-02-05T22:46:12.942Z,2.42
2024-02-05T22:49:05.956Z,2.30
2024-02-05T22:51:58.776Z,2.00
2024-02-05T22:54:51.854Z,2.50
2024-02-05T22:57:44.815Z,2.28
2024-02-05T23:00:39.447Z,2.10
2024-02-05T23:03:35.321Z,2.22
2024-02-05T23:06:29.354Z,2.20
2024-02-05T23:09:26.632Z,1.85
2024-02-05T23:12:20.270Z,2.20
2024-02-05T23:15:13.994Z,2.35
2024-02-05T23:18:08.612Z,2.13
2024-02-05T23:21:03.141Z,2.50
2024-02-05T23:23:57.572Z,1.95
2024-02-05T23:26:50.726Z,2.40
2024-02-05T23:29:43.518Z,1.88
2024-02-05T23:32:37.061Z,2.78
2024-02-05T23:35:30.653Z,1.67
2024-02-05T23:38:26.138Z,2.15
2024-02-05T23:41:22.007Z,1.98
2024-02-05T23:44:14.798Z,2.22
2024-02-05T23:47:08.441Z,2.15
2024-02-05T23:50:01.890Z,2.28
2024-02-05T23:52:54.874Z,2.55
2024-02-05T23:55:49.201Z,2.55
2024-02-05T23:58:42.708Z,2.10
